sensor_id;sensor_type;location;lat;lon;timestamp;temperature;humidity
71668;DHT22;59504;54.806;9.640;2022-08-21T00:01:11;14.30;68.30
71668;DHT22;59504;54.806;9.640;2022-08-21T00:03:13;14.30;68.40
71668;DHT22;59504;54.806;9.640;2022-08-21T00:05:14;14.30;68.40
71668;DHT22;59504;54.806;9.640;2022-08-21T00:07:16;14.30;68.70
71668;DHT22;59504;54.806;9.640;2022-08-21T00:09:18;14.30;68.60
71668;DHT22;59504;54.806;9.640;2022-08-21T00:11:20;14.30;68.70
71668;DHT22;59504;54.806;9.640;2022-08-21T00:13:20;14.30;68.70
71668;DHT22;59504;54.806;9.640;2022-08-21T00:15:27;14.20;68.80
71668;DHT22;59504;54.806;9.640;2022-08-21T00:17:27;14.20;68.80
71668;DHT22;59504;54.806;9.640;2022-08-21T00:19:29;14.30;68.80
71668;DHT22;59504;54.806;9.640;2022-08-21T00:21:29;14.20;68.90
71668;DHT22;59504;54.806;9.640;2022-08-21T00:23:33;14.20;68.80
71668;DHT22;59504;54.806;9.640;2022-08-21T00:25:35;14.20;68.90
71668;DHT22;59504;54.806;9.640;2022-08-21T00:27:38;14.20;68.90
71668;DHT22;59504;54.806;9.640;2022-08-21T00:29:38;14.20;68.90
71668;DHT22;59504;54.806;9.640;2022-08-21T00:31:40;14.20;68.90
71668;DHT22;59504;54.806;9.640;2022-08-21T00:33:41;14.20;68.90
71668;DHT22;59504;54.806;9.640;2022-08-21T00:35:43;14.20;68.90
71668;DHT22;59504;54.806;9.640;2022-08-21T00:37:44;14.20;69.10
71668;DHT22;59504;54.806;9.640;2022-08-21T00:39:45;14.10;69.00
71668;DHT22;59504;54.806;9.640;2022-08-21T00:41:46;14.10;69.10
71668;DHT22;59504;54.806;9.640;2022-08-21T00:43:47;14.10;69.10
71668;DHT22;59504;54.806;9.640;2022-08-21T00:45:52;14.10;69.20
71668;DHT22;59504;54.806;9.640;2022-08-21T00:47:53;14.10;69.40
71668;DHT22;59504;54.806;9.640;2022-08-21T00:49:55;14.10;69.40
71668;DHT22;59504;54.806;9.640;2022-08-21T00:51:59;14.10;69.60
71668;DHT22;59504;54.806;9.640;2022-08-21T00:54:01;14.00;69.50
71668;DHT22;59504;54.806;9.640;2022-08-21T00:56:03;14.00;69.60
71668;DHT22;59504;54.806;9.640;2022-08-21T00:58:07;14.00;69.60
71668;DHT22;59504;54.806;9.640;2022-08-21T01:00:12;14.00;69.80
71668;DHT22;59504;54.806;9.640;2022-08-21T01:02:13;14.00;70.00
71668;DHT22;59504;54.806;9.640;2022-08-21T01:04:14;14.00;69.90
71668;DHT22;59504;54.806;9.640;2022-08-21T01:06:17;14.00;69.90
71668;DHT22;59504;54.806;9.640;2022-08-21T01:08:18;14.00;70.10
71668;DHT22;59504;54.806;9.640;2022-08-21T01:10:20;14.00;70.20
71668;DHT22;59504;54.806;9.640;2022-08-21T01:12:21;14.00;70.10
71668;DHT22;59504;54.806;9.640;2022-08-21T01:14:23;13.90;70.10
71668;DHT22;59504;54.806;9.640;2022-08-21T01:16:24;14.00;70.20
71668;DHT22;59504;54.806;9.640;2022-08-21T01:18:26;13.90;70.10
71668;DHT22;59504;54.806;9.640;2022-08-21T01:20:27;13.90;70.20
71668;DHT22;59504;54.806;9.640;2022-08-21T01:22:27;13.90;70.10
71668;DHT22;59504;54.806;9.640;2022-08-21T01:24:28;13.90;70.10
71668;DHT22;59504;54.806;9.640;2022-08-21T01:26:32;13.90;70.10
71668;DHT22;59504;54.806;9.640;2022-08-21T01:28:40;13.90;70.00
71668;DHT22;59504;54.806;9.640;2022-08-21T01:30:43;13.90;70.00
71668;DHT22;59504;54.806;9.640;2022-08-21T01:32:44;13.80;69.90
71668;DHT22;59504;54.806;9.640;2022-08-21T01:34:48;13.80;70.00
71668;DHT22;59504;54.806;9.640;2022-08-21T01:36:49;13.80;69.90
71668;DHT22;59504;54.806;9.640;2022-08-21T01:38:49;13.80;70.00
71668;DHT22;59504;54.806;9.640;2022-08-21T01:40:50;13.80;70.00
71668;DHT22;59504;54.806;9.640;2022-08-21T01:42:51;13.80;70.10
71668;DHT22;59504;54.806;9.640;2022-08-21T01:44:52;13.80;70.20
71668;DHT22;59504;54.806;9.640;2022-08-21T01:46:53;13.80;70.20
71668;DHT22;59504;54.806;9.640;2022-08-21T01:48:54;13.80;70.20
71668;DHT22;59504;54.806;9.640;2022-08-21T01:50:55;13.70;70.20
71668;DHT22;59504;54.806;9.640;2022-08-21T01:52:56;13.70;70.20
71668;DHT22;59504;54.806;9.640;2022-08-21T01:54:56;13.70;70.30
71668;DHT22;59504;54.806;9.640;2022-08-21T01:56:58;13.70;70.30
71668;DHT22;59504;54.806;9.640;2022-08-21T01:58:59;13.60;70.40
71668;DHT22;59504;54.806;9.640;2022-08-21T02:01:01;13.60;70.40
71668;DHT22;59504;54.806;9.640;2022-08-21T02:03:02;13.60;70.40
71668;DHT22;59504;54.806;9.640;2022-08-21T02:05:04;13.60;70.50
71668;DHT22;59504;54.806;9.640;2022-08-21T02:07:05;13.60;70.50
71668;DHT22;59504;54.806;9.640;2022-08-21T02:09:08;13.60;70.50
71668;DHT22;59504;54.806;9.640;2022-08-21T02:11:10;13.60;70.70
71668;DHT22;59504;54.806;9.640;2022-08-21T02:13:11;13.60;70.70
71668;DHT22;59504;54.806;9.640;2022-08-21T02:15:11;13.60;70.70
71668;DHT22;59504;54.806;9.640;2022-08-21T02:17:12;13.60;70.70
71668;DHT22;59504;54.806;9.640;2022-08-21T02:19:15;13.60;71.00
71668;DHT22;59504;54.806;9.640;2022-08-21T02:21:16;13.50;71.00
71668;DHT22;59504;54.806;9.640;2022-08-21T02:23:17;13.50;71.10
71668;DHT22;59504;54.806;9.640;2022-08-21T02:25:18;13.50;71.20
71668;DHT22;59504;54.806;9.640;2022-08-21T02:27:19;13.50;71.20
71668;DHT22;59504;54.806;9.640;2022-08-21T02:29:20;13.50;71.40
71668;DHT22;59504;54.806;9.640;2022-08-21T02:31:21;13.50;71.40
71668;DHT22;59504;54.806;9.640;2022-08-21T02:33:22;13.50;71.60
71668;DHT22;59504;54.806;9.640;2022-08-21T02:35:24;13.50;71.60
71668;DHT22;59504;54.806;9.640;2022-08-21T02:37:25;13.50;71.70
71668;DHT22;59504;54.806;9.640;2022-08-21T02:39:26;13.50;71.70
71668;DHT22;59504;54.806;9.640;2022-08-21T02:41:26;13.50;71.70
71668;DHT22;59504;54.806;9.640;2022-08-21T02:43:27;13.50;71.80
71668;DHT22;59504;54.806;9.640;2022-08-21T02:45:29;13.50;71.80
71668;DHT22;59504;54.806;9.640;2022-08-21T02:47:30;13.50;71.80
71668;DHT22;59504;54.806;9.640;2022-08-21T02:49:30;13.50;71.80
71668;DHT22;59504;54.806;9.640;2022-08-21T02:51:31;13.50;71.90
71668;DHT22;59504;54.806;9.640;2022-08-21T02:53:32;13.50;71.90
71668;DHT22;59504;54.806;9.640;2022-08-21T02:55:36;13.50;71.80
71668;DHT22;59504;54.806;9.640;2022-08-21T02:57:37;13.50;71.90
71668;DHT22;59504;54.806;9.640;2022-08-21T02:59:38;13.50;71.90
71668;DHT22;59504;54.806;9.640;2022-08-21T03:01:38;13.50;71.90
71668;DHT22;59504;54.806;9.640;2022-08-21T03:03:41;13.50;71.90
71668;DHT22;59504;54.806;9.640;2022-08-21T03:05:43;13.50;72.00
71668;DHT22;59504;54.806;9.640;2022-08-21T03:07:44;13.50;71.90
71668;DHT22;59504;54.806;9.640;2022-08-21T03:09:46;13.50;71.90
71668;DHT22;59504;54.806;9.640;2022-08-21T03:11:47;13.50;72.00
71668;DHT22;59504;54.806;9.640;2022-08-21T03:13:48;13.50;72.00
71668;DHT22;59504;54.806;9.640;2022-08-21T03:15:49;13.50;72.10
71668;DHT22;59504;54.806;9.640;2022-08-21T03:17:50;13.50;72.30
71668;DHT22;59504;54.806;9.640;2022-08-21T03:19:51;13.50;72.10
71668;DHT22;59504;54.806;9.640;2022-08-21T03:21:52;13.40;72.10
71668;DHT22;59504;54.806;9.640;2022-08-21T03:23:53;13.50;72.10
71668;DHT22;59504;54.806;9.640;2022-08-21T03:25:54;13.40;72.00
71668;DHT22;59504;54.806;9.640;2022-08-21T03:27:55;13.40;72.10
71668;DHT22;59504;54.806;9.640;2022-08-21T03:29:56;13.40;72.10
71668;DHT22;59504;54.806;9.640;2022-08-21T03:31:57;13.40;72.10
71668;DHT22;59504;54.806;9.640;2022-08-21T03:33:58;13.40;72.10
71668;DHT22;59504;54.806;9.640;2022-08-21T03:36:03;13.40;72.20
71668;DHT22;59504;54.806;9.640;2022-08-21T03:38:04;13.40;72.20
71668;DHT22;59504;54.806;9.640;2022-08-21T03:40:07;13.40;72.10
71668;DHT22;59504;54.806;9.640;2022-08-21T03:42:08;13.40;72.10
71668;DHT22;59504;54.806;9.640;2022-08-21T03:44:10;13.40;72.20
71668;DHT22;59504;54.806;9.640;2022-08-21T03:46:10;13.40;72.30
71668;DHT22;59504;54.806;9.640;2022-08-21T03:48:11;13.40;72.30
71668;DHT22;59504;54.806;9.640;2022-08-21T03:50:12;13.40;72.40
71668;DHT22;59504;54.806;9.640;2022-08-21T03:52:12;13.40;72.30
71668;DHT22;59504;54.806;9.640;2022-08-21T03:54:13;13.50;72.30
71668;DHT22;59504;54.806;9.640;2022-08-21T03:56:14;13.40;72.30
71668;DHT22;59504;54.806;9.640;2022-08-21T03:58:20;13.50;72.50
71668;DHT22;59504;54.806;9.640;2022-08-21T04:00:21;13.50;72.60
71668;DHT22;59504;54.806;9.640;2022-08-21T04:02:22;13.40;72.40
71668;DHT22;59504;54.806;9.640;2022-08-21T04:04:23;13.50;72.50
71668;DHT22;59504;54.806;9.640;2022-08-21T04:06:24;13.50;72.50
71668;DHT22;59504;54.806;9.640;2022-08-21T04:08:26;13.50;72.50
71668;DHT22;59504;54.806;9.640;2022-08-21T04:10:29;13.50;72.60
71668;DHT22;59504;54.806;9.640;2022-08-21T04:12:31;13.50;72.50
71668;DHT22;59504;54.806;9.640;2022-08-21T04:14:32;13.50;72.50
71668;DHT22;59504;54.806;9.640;2022-08-21T04:16:33;13.50;72.50
71668;DHT22;59504;54.806;9.640;2022-08-21T04:18:34;13.50;72.50
71668;DHT22;59504;54.806;9.640;2022-08-21T04:20:35;13.50;72.50
71668;DHT22;59504;54.806;9.640;2022-08-21T04:22:35;13.50;72.60
71668;DHT22;59504;54.806;9.640;2022-08-21T04:24:36;13.50;72.60
71668;DHT22;59504;54.806;9.640;2022-08-21T04:26:37;13.50;72.50
71668;DHT22;59504;54.806;9.640;2022-08-21T04:28:38;13.50;72.50
71668;DHT22;59504;54.806;9.640;2022-08-21T04:30:39;13.50;72.50
71668;DHT22;59504;54.806;9.640;2022-08-21T04:32:50;13.50;72.40
71668;DHT22;59504;54.806;9.640;2022-08-21T04:34:58;13.50;72.40
71668;DHT22;59504;54.806;9.640;2022-08-21T04:36:59;13.50;72.40
71668;DHT22;59504;54.806;9.640;2022-08-21T04:39:00;13.50;72.30
71668;DHT22;59504;54.806;9.640;2022-08-21T04:41:01;13.60;72.40
71668;DHT22;59504;54.806;9.640;2022-08-21T04:43:04;13.60;72.50
71668;DHT22;59504;54.806;9.640;2022-08-21T04:45:06;13.60;72.70
71668;DHT22;59504;54.806;9.640;2022-08-21T04:47:06;13.60;72.70
71668;DHT22;59504;54.806;9.640;2022-08-21T04:49:07;13.60;72.70
71668;DHT22;59504;54.806;9.640;2022-08-21T04:53:21;13.70;72.80
71668;DHT22;59504;54.806;9.640;2022-08-21T04:55:24;13.70;72.70
71668;DHT22;59504;54.806;9.640;2022-08-21T04:57:25;13.70;72.60
71668;DHT22;59504;54.806;9.640;2022-08-21T04:59:31;13.70;72.60
71668;DHT22;59504;54.806;9.640;2022-08-21T05:01:35;13.70;72.60
71668;DHT22;59504;54.806;9.640;2022-08-21T05:03:36;13.80;72.60
71668;DHT22;59504;54.806;9.640;2022-08-21T05:05:38;13.80;72.60
71668;DHT22;59504;54.806;9.640;2022-08-21T05:07:41;13.80;72.60
71668;DHT22;59504;54.806;9.640;2022-08-21T05:09:43;13.80;72.70
71668;DHT22;59504;54.806;9.640;2022-08-21T05:11:44;13.80;72.80
71668;DHT22;59504;54.806;9.640;2022-08-21T05:13:45;13.90;72.90
71668;DHT22;59504;54.806;9.640;2022-08-21T05:15:46;13.90;73.00
71668;DHT22;59504;54.806;9.640;2022-08-21T05:17:47;14.00;73.10
71668;DHT22;59504;54.806;9.640;2022-08-21T05:19:47;14.00;73.20
71668;DHT22;59504;54.806;9.640;2022-08-21T05:21:48;14.10;73.30
71668;DHT22;59504;54.806;9.640;2022-08-21T05:23:49;14.10;73.20
71668;DHT22;59504;54.806;9.640;2022-08-21T05:25:50;14.20;73.30
71668;DHT22;59504;54.806;9.640;2022-08-21T05:27:52;14.20;73.30
71668;DHT22;59504;54.806;9.640;2022-08-21T05:29:53;14.30;73.30
71668;DHT22;59504;54.806;9.640;2022-08-21T05:31:54;14.30;73.30
71668;DHT22;59504;54.806;9.640;2022-08-21T05:33:55;14.50;73.20
71668;DHT22;59504;54.806;9.640;2022-08-21T05:35:56;14.50;73.10
71668;DHT22;59504;54.806;9.640;2022-08-21T05:37:57;14.60;73.10
71668;DHT22;59504;54.806;9.640;2022-08-21T05:39:59;14.60;72.90
71668;DHT22;59504;54.806;9.640;2022-08-21T05:42:00;14.70;72.80
71668;DHT22;59504;54.806;9.640;2022-08-21T05:44:01;14.80;72.70
71668;DHT22;59504;54.806;9.640;2022-08-21T05:46:06;14.90;72.60
71668;DHT22;59504;54.806;9.640;2022-08-21T05:48:20;14.90;72.30
71668;DHT22;59504;54.806;9.640;2022-08-21T05:50:21;15.00;72.10
71668;DHT22;59504;54.806;9.640;2022-08-21T05:52:22;15.10;72.00
71668;DHT22;59504;54.806;9.640;2022-08-21T05:54:23;15.10;71.80
71668;DHT22;59504;54.806;9.640;2022-08-21T05:56:23;15.20;71.60
71668;DHT22;59504;54.806;9.640;2022-08-21T05:58:24;15.20;71.50
71668;DHT22;59504;54.806;9.640;2022-08-21T06:00:29;15.30;71.20
71668;DHT22;59504;54.806;9.640;2022-08-21T06:02:30;15.40;70.90
71668;DHT22;59504;54.806;9.640;2022-08-21T06:04:35;15.50;70.70
71668;DHT22;59504;54.806;9.640;2022-08-21T06:06:36;15.50;70.60
71668;DHT22;59504;54.806;9.640;2022-08-21T06:08:37;15.60;70.60
71668;DHT22;59504;54.806;9.640;2022-08-21T06:10:38;15.70;70.60
71668;DHT22;59504;54.806;9.640;2022-08-21T06:12:39;15.80;70.50
71668;DHT22;59504;54.806;9.640;2022-08-21T06:14:41;15.90;70.50
71668;DHT22;59504;54.806;9.640;2022-08-21T06:16:42;15.90;70.10
71668;DHT22;59504;54.806;9.640;2022-08-21T06:18:44;16.00;70.00
71668;DHT22;59504;54.806;9.640;2022-08-21T06:20:46;16.10;69.70
71668;DHT22;59504;54.806;9.640;2022-08-21T06:22:47;16.20;69.60
71668;DHT22;59504;54.806;9.640;2022-08-21T06:24:48;16.20;69.50
71668;DHT22;59504;54.806;9.640;2022-08-21T06:26:49;16.30;69.40
71668;DHT22;59504;54.806;9.640;2022-08-21T06:28:50;16.40;69.20
71668;DHT22;59504;54.806;9.640;2022-08-21T06:30:54;16.50;69.00
71668;DHT22;59504;54.806;9.640;2022-08-21T06:32:55;16.60;68.80
71668;DHT22;59504;54.806;9.640;2022-08-21T06:34:56;16.60;68.60
71668;DHT22;59504;54.806;9.640;2022-08-21T06:36:56;16.70;68.30
71668;DHT22;59504;54.806;9.640;2022-08-21T06:38:57;16.80;67.90
71668;DHT22;59504;54.806;9.640;2022-08-21T06:40:58;16.90;67.70
71668;DHT22;59504;54.806;9.640;2022-08-21T06:43:06;17.00;67.50
71668;DHT22;59504;54.806;9.640;2022-08-21T06:45:08;17.10;67.10
71668;DHT22;59504;54.806;9.640;2022-08-21T06:47:09;17.20;67.00
71668;DHT22;59504;54.806;9.640;2022-08-21T06:49:09;17.30;66.70
71668;DHT22;59504;54.806;9.640;2022-08-21T06:51:10;17.30;66.50
71668;DHT22;59504;54.806;9.640;2022-08-21T06:53:13;17.40;66.20
71668;DHT22;59504;54.806;9.640;2022-08-21T06:55:14;17.50;65.90
71668;DHT22;59504;54.806;9.640;2022-08-21T06:57:15;17.60;65.70
71668;DHT22;59504;54.806;9.640;2022-08-21T06:59:16;17.60;65.20
71668;DHT22;59504;54.806;9.640;2022-08-21T07:01:16;17.80;65.10
71668;DHT22;59504;54.806;9.640;2022-08-21T07:05:28;18.00;64.40
71668;DHT22;59504;54.806;9.640;2022-08-21T07:07:29;18.00;64.20
71668;DHT22;59504;54.806;9.640;2022-08-21T07:09:29;18.10;64.10
71668;DHT22;59504;54.806;9.640;2022-08-21T07:11:30;18.20;63.40
71668;DHT22;59504;54.806;9.640;2022-08-21T07:13:31;18.30;63.10
71668;DHT22;59504;54.806;9.640;2022-08-21T07:15:31;18.30;62.50
71668;DHT22;59504;54.806;9.640;2022-08-21T07:17:32;18.40;61.70
71668;DHT22;59504;54.806;9.640;2022-08-21T07:19:33;18.50;61.30
71668;DHT22;59504;54.806;9.640;2022-08-21T07:21:33;18.50;60.80
71668;DHT22;59504;54.806;9.640;2022-08-21T07:23:44;18.70;60.30
71668;DHT22;59504;54.806;9.640;2022-08-21T07:25:45;18.70;59.20
71668;DHT22;59504;54.806;9.640;2022-08-21T07:27:46;18.80;59.20
71668;DHT22;59504;54.806;9.640;2022-08-21T07:29:47;18.90;58.70
71668;DHT22;59504;54.806;9.640;2022-08-21T07:31:48;18.90;58.70
71668;DHT22;59504;54.806;9.640;2022-08-21T07:33:49;19.10;58.30
71668;DHT22;59504;54.806;9.640;2022-08-21T07:35:50;19.10;57.90
71668;DHT22;59504;54.806;9.640;2022-08-21T07:37:50;19.20;57.70
71668;DHT22;59504;54.806;9.640;2022-08-21T07:39:51;19.30;57.70
71668;DHT22;59504;54.806;9.640;2022-08-21T07:41:52;19.30;55.80
71668;DHT22;59504;54.806;9.640;2022-08-21T07:43:53;19.40;55.60
71668;DHT22;59504;54.806;9.640;2022-08-21T07:45:54;19.40;54.90
71668;DHT22;59504;54.806;9.640;2022-08-21T07:47:55;19.50;55.00
71668;DHT22;59504;54.806;9.640;2022-08-21T07:49:55;19.60;54.50
71668;DHT22;59504;54.806;9.640;2022-08-21T07:51:56;19.70;53.50
71668;DHT22;59504;54.806;9.640;2022-08-21T07:53:58;19.80;53.60
71668;DHT22;59504;54.806;9.640;2022-08-21T07:56:02;19.80;53.20
71668;DHT22;59504;54.806;9.640;2022-08-21T07:58:04;19.90;52.30
71668;DHT22;59504;54.806;9.640;2022-08-21T08:00:07;19.90;51.60
71668;DHT22;59504;54.806;9.640;2022-08-21T08:02:08;20.00;52.00
71668;DHT22;59504;54.806;9.640;2022-08-21T08:04:09;20.10;52.00
71668;DHT22;59504;54.806;9.640;2022-08-21T08:06:09;20.20;52.10
71668;DHT22;59504;54.806;9.640;2022-08-21T08:08:12;20.20;51.60
71668;DHT22;59504;54.806;9.640;2022-08-21T08:10:13;20.30;52.10
71668;DHT22;59504;54.806;9.640;2022-08-21T08:12:14;20.40;51.50
71668;DHT22;59504;54.806;9.640;2022-08-21T08:14:15;20.40;50.70
71668;DHT22;59504;54.806;9.640;2022-08-21T08:16:16;20.50;50.90
71668;DHT22;59504;54.806;9.640;2022-08-21T08:18:17;20.50;50.60
71668;DHT22;59504;54.806;9.640;2022-08-21T08:20:18;20.60;50.60
71668;DHT22;59504;54.806;9.640;2022-08-21T08:22:21;20.60;51.00
71668;DHT22;59504;54.806;9.640;2022-08-21T08:24:24;20.70;50.80
71668;DHT22;59504;54.806;9.640;2022-08-21T08:26:24;20.80;51.80
71668;DHT22;59504;54.806;9.640;2022-08-21T08:28:25;20.80;51.10
71668;DHT22;59504;54.806;9.640;2022-08-21T08:30:29;20.90;51.20
71668;DHT22;59504;54.806;9.640;2022-08-21T08:32:29;20.90;51.40
71668;DHT22;59504;54.806;9.640;2022-08-21T08:34:30;21.00;51.50
71668;DHT22;59504;54.806;9.640;2022-08-21T08:36:33;21.00;51.30
71668;DHT22;59504;54.806;9.640;2022-08-21T08:38:35;21.10;51.60
71668;DHT22;59504;54.806;9.640;2022-08-21T08:43:23;21.30;51.50
71668;DHT22;59504;54.806;9.640;2022-08-21T08:45:25;21.40;52.30
71668;DHT22;59504;54.806;9.640;2022-08-21T08:47:27;21.40;52.30
71668;DHT22;59504;54.806;9.640;2022-08-21T08:54:10;21.70;51.50
71668;DHT22;59504;54.806;9.640;2022-08-21T08:56:11;21.70;51.80
71668;DHT22;59504;54.806;9.640;2022-08-21T08:58:29;21.80;52.00
71668;DHT22;59504;54.806;9.640;2022-08-21T09:00:33;21.90;51.60
71668;DHT22;59504;54.806;9.640;2022-08-21T09:02:34;21.90;51.70
71668;DHT22;59504;54.806;9.640;2022-08-21T09:04:35;22.00;51.60
71668;DHT22;59504;54.806;9.640;2022-08-21T09:06:53;22.10;51.50
71668;DHT22;59504;54.806;9.640;2022-08-21T09:18:54;22.40;51.00
71668;DHT22;59504;54.806;9.640;2022-08-21T09:21:08;22.50;51.10
71668;DHT22;59504;54.806;9.640;2022-08-21T09:25:22;22.60;50.50
71668;DHT22;59504;54.806;9.640;2022-08-21T09:27:24;22.60;49.60
71668;DHT22;59504;54.806;9.640;2022-08-21T09:29:27;22.70;49.60
71668;DHT22;59504;54.806;9.640;2022-08-21T09:31:33;22.70;49.40
71668;DHT22;59504;54.806;9.640;2022-08-21T09:33:34;22.80;49.50
71668;DHT22;59504;54.806;9.640;2022-08-21T09:35:35;22.90;49.70
71668;DHT22;59504;54.806;9.640;2022-08-21T09:39:51;23.00;49.40
71668;DHT22;59504;54.806;9.640;2022-08-21T09:42:03;23.00;49.10
71668;DHT22;59504;54.806;9.640;2022-08-21T09:44:06;23.10;48.90
71668;DHT22;59504;54.806;9.640;2022-08-21T09:46:10;23.10;48.90
71668;DHT22;59504;54.806;9.640;2022-08-21T09:48:21;23.20;48.50
71668;DHT22;59504;54.806;9.640;2022-08-21T09:50:24;23.30;48.50
71668;DHT22;59504;54.806;9.640;2022-08-21T09:52:28;23.30;48.30
71668;DHT22;59504;54.806;9.640;2022-08-21T09:54:32;23.30;47.40
71668;DHT22;59504;54.806;9.640;2022-08-21T09:58:53;23.40;47.60
71668;DHT22;59504;54.806;9.640;2022-08-21T10:00:59;23.50;47.60
71668;DHT22;59504;54.806;9.640;2022-08-21T10:05:23;23.60;46.00
71668;DHT22;59504;54.806;9.640;2022-08-21T10:07:27;23.60;46.50
71668;DHT22;59504;54.806;9.640;2022-08-21T10:09:28;23.70;46.40
71668;DHT22;59504;54.806;9.640;2022-08-21T10:11:29;23.70;45.80
71668;DHT22;59504;54.806;9.640;2022-08-21T10:16:14;23.80;45.80
71668;DHT22;59504;54.806;9.640;2022-08-21T10:18:39;23.80;44.90
71668;DHT22;59504;54.806;9.640;2022-08-21T10:20:50;23.90;44.50
71668;DHT22;59504;54.806;9.640;2022-08-21T10:25:22;23.90;44.10
71668;DHT22;59504;54.806;9.640;2022-08-21T10:36:29;23.90;41.70
71668;DHT22;59504;54.806;9.640;2022-08-21T10:40:59;24.00;42.10
71668;DHT22;59504;54.806;9.640;2022-08-21T10:45:14;24.10;42.00
71668;DHT22;59504;54.806;9.640;2022-08-21T10:47:41;24.10;41.70
71668;DHT22;59504;54.806;9.640;2022-08-21T10:56:32;24.30;42.80
71668;DHT22;59504;54.806;9.640;2022-08-21T10:58:38;24.30;43.00
71668;DHT22;59504;54.806;9.640;2022-08-21T11:00:49;24.30;42.90
71668;DHT22;59504;54.806;9.640;2022-08-21T11:07:46;24.40;43.50
71668;DHT22;59504;54.806;9.640;2022-08-21T11:09:48;24.40;43.60
71668;DHT22;59504;54.806;9.640;2022-08-21T11:12:34;24.40;43.10
71668;DHT22;59504;54.806;9.640;2022-08-21T11:16:45;24.40;42.10
71668;DHT22;59504;54.806;9.640;2022-08-21T11:18:55;24.40;42.00
71668;DHT22;59504;54.806;9.640;2022-08-21T11:23:38;24.50;42.90
71668;DHT22;59504;54.806;9.640;2022-08-21T11:25:45;24.50;42.70
71668;DHT22;59504;54.806;9.640;2022-08-21T11:28:04;24.50;41.90
71668;DHT22;59504;54.806;9.640;2022-08-21T11:30:07;24.50;40.30
71668;DHT22;59504;54.806;9.640;2022-08-21T11:37:01;24.60;40.70
71668;DHT22;59504;54.806;9.640;2022-08-21T11:39:22;24.60;41.10
71668;DHT22;59504;54.806;9.640;2022-08-21T11:41:40;24.60;41.80
71668;DHT22;59504;54.806;9.640;2022-08-21T11:43:47;24.60;39.70
71668;DHT22;59504;54.806;9.640;2022-08-21T11:46:39;24.60;39.90
71668;DHT22;59504;54.806;9.640;2022-08-21T11:50:28;24.70;40.40
71668;DHT22;59504;54.806;9.640;2022-08-21T11:52:35;24.70;40.60
71668;DHT22;59504;54.806;9.640;2022-08-21T11:56:48;24.70;41.20
71668;DHT22;59504;54.806;9.640;2022-08-21T11:58:56;24.70;41.20
71668;DHT22;59504;54.806;9.640;2022-08-21T12:01:05;24.80;41.50
71668;DHT22;59504;54.806;9.640;2022-08-21T12:03:13;24.80;41.80
71668;DHT22;59504;54.806;9.640;2022-08-21T12:05:34;24.80;42.30
71668;DHT22;59504;54.806;9.640;2022-08-21T12:07:43;24.80;41.80
71668;DHT22;59504;54.806;9.640;2022-08-21T12:09:55;24.90;41.80
71668;DHT22;59504;54.806;9.640;2022-08-21T12:12:12;24.90;42.10
71668;DHT22;59504;54.806;9.640;2022-08-21T12:14:22;24.90;42.60
71668;DHT22;59504;54.806;9.640;2022-08-21T12:16:33;25.00;42.60
71668;DHT22;59504;54.806;9.640;2022-08-21T12:18:35;25.00;42.70
71668;DHT22;59504;54.806;9.640;2022-08-21T12:20:58;25.00;43.20
71668;DHT22;59504;54.806;9.640;2022-08-21T12:25:18;25.20;43.00
71668;DHT22;59504;54.806;9.640;2022-08-21T12:29:53;25.20;43.40
71668;DHT22;59504;54.806;9.640;2022-08-21T12:34:01;25.20;43.50
71668;DHT22;59504;54.806;9.640;2022-08-21T12:36:18;25.20;44.00
71668;DHT22;59504;54.806;9.640;2022-08-21T12:38:28;25.20;44.00
71668;DHT22;59504;54.806;9.640;2022-08-21T12:40:33;25.20;44.20
71668;DHT22;59504;54.806;9.640;2022-08-21T12:42:41;25.10;44.50
71668;DHT22;59504;54.806;9.640;2022-08-21T12:44:54;25.10;44.20
71668;DHT22;59504;54.806;9.640;2022-08-21T12:47:03;25.00;44.10
71668;DHT22;59504;54.806;9.640;2022-08-21T12:49:13;25.00;44.20
71668;DHT22;59504;54.806;9.640;2022-08-21T12:51:29;24.90;44.00
71668;DHT22;59504;54.806;9.640;2022-08-21T12:53:47;24.90;44.10
71668;DHT22;59504;54.806;9.640;2022-08-21T12:55:48;24.80;44.60
71668;DHT22;59504;54.806;9.640;2022-08-21T12:57:49;24.80;44.90
71668;DHT22;59504;54.806;9.640;2022-08-21T12:59:58;24.80;45.00
71668;DHT22;59504;54.806;9.640;2022-08-21T13:02:01;24.70;45.50
71668;DHT22;59504;54.806;9.640;2022-08-21T13:04:09;24.60;45.60
71668;DHT22;59504;54.806;9.640;2022-08-21T13:06:15;24.60;46.10
71668;DHT22;59504;54.806;9.640;2022-08-21T13:08:18;24.50;46.80
71668;DHT22;59504;54.806;9.640;2022-08-21T13:10:27;24.50;47.00
71668;DHT22;59504;54.806;9.640;2022-08-21T13:12:29;24.40;47.10
71668;DHT22;59504;54.806;9.640;2022-08-21T13:14:35;24.40;47.00
71668;DHT22;59504;54.806;9.640;2022-08-21T13:16:36;24.40;47.10
71668;DHT22;59504;54.806;9.640;2022-08-21T13:18:56;24.40;47.40
71668;DHT22;59504;54.806;9.640;2022-08-21T13:21:30;24.30;47.60
71668;DHT22;59504;54.806;9.640;2022-08-21T13:23:31;24.30;47.40
71668;DHT22;59504;54.806;9.640;2022-08-21T13:25:35;24.30;47.60
71668;DHT22;59504;54.806;9.640;2022-08-21T13:27:36;24.30;47.80
71668;DHT22;59504;54.806;9.640;2022-08-21T13:29:40;24.30;47.40
71668;DHT22;59504;54.806;9.640;2022-08-21T13:31:51;24.30;48.20
71668;DHT22;59504;54.806;9.640;2022-08-21T13:33:54;24.30;48.30
71668;DHT22;59504;54.806;9.640;2022-08-21T13:36:04;24.30;48.10
71668;DHT22;59504;54.806;9.640;2022-08-21T13:38:05;24.30;48.10
71668;DHT22;59504;54.806;9.640;2022-08-21T13:40:18;24.30;48.20
71668;DHT22;59504;54.806;9.640;2022-08-21T13:42:20;24.30;48.10
71668;DHT22;59504;54.806;9.640;2022-08-21T13:44:41;24.30;48.20
71668;DHT22;59504;54.806;9.640;2022-08-21T13:46:43;24.30;47.20
71668;DHT22;59504;54.806;9.640;2022-08-21T13:48:44;24.30;47.20
71668;DHT22;59504;54.806;9.640;2022-08-21T13:50:45;24.30;47.30
71668;DHT22;59504;54.806;9.640;2022-08-21T13:53:01;24.30;47.70
71668;DHT22;59504;54.806;9.640;2022-08-21T13:55:15;24.40;47.20
71668;DHT22;59504;54.806;9.640;2022-08-21T13:57:17;24.40;46.40
71668;DHT22;59504;54.806;9.640;2022-08-21T13:59:31;24.50;46.40
71668;DHT22;59504;54.806;9.640;2022-08-21T14:01:56;24.50;46.60
71668;DHT22;59504;54.806;9.640;2022-08-21T14:06:37;24.50;46.20
71668;DHT22;59504;54.806;9.640;2022-08-21T14:08:39;24.50;46.60
71668;DHT22;59504;54.806;9.640;2022-08-21T14:10:52;24.50;45.90
71668;DHT22;59504;54.806;9.640;2022-08-21T14:13:02;24.50;44.70
71668;DHT22;59504;54.806;9.640;2022-08-21T14:15:05;24.50;43.90
71668;DHT22;59504;54.806;9.640;2022-08-21T14:17:09;24.50;44.10
71668;DHT22;59504;54.806;9.640;2022-08-21T14:19:19;24.40;44.10
71668;DHT22;59504;54.806;9.640;2022-08-21T14:21:32;24.40;44.30
71668;DHT22;59504;54.806;9.640;2022-08-21T14:23:34;24.40;44.60
71668;DHT22;59504;54.806;9.640;2022-08-21T14:25:41;24.40;44.90